sensor_id;sensor_type;location;lat;lon;timestamp;pressure;altitude;pressure_sealevel;temperature;humidity
52032;BME280;38044;45.148;39.604;2023-12-07T00:01:31;101230.00;;;2.05;92.50
52032;BME280;38044;45.148;39.604;2023-12-07T00:04:00;101258.91;;;2.13;92.52
52032;BME280;38044;45.148;39.604;2023-12-07T00:06:26;101266.06;;;2.12;92.33
52032;BME280;38044;45.148;39.604;2023-12-07T00:08:52;101260.22;;;2.03;92.59
52032;BME280;38044;45.148;39.604;2023-12-07T00:11:18;101259.38;;;2.03;92.26
52032;BME280;38044;45.148;39.604;2023-12-07T00:13:43;101250.19;;;2.06;92.32
52032;BME280;38044;45.148;39.604;2023-12-07T00:16:09;101247.81;;;1.97;92.29
52032;BME280;38044;45.148;39.604;2023-12-07T00:18:35;101265.53;;;2.03;92.30
52032;BME280;38044;45.148;39.604;2023-12-07T00:21:01;101256.19;;;1.94;92.39
52032;BME280;38044;45.148;39.604;2023-12-07T00:23:27;101272.28;;;1.99;92.52
52032;BME280;38044;45.148;39.604;2023-12-07T00:25:53;101279.91;;;1.89;92.80
52032;BME280;38044;45.148;39.604;2023-12-07T00:28:19;101284.19;;;1.90;92.75
52032;BME280;38044;45.148;39.604;2023-12-07T00:30:45;101279.50;;;1.86;93.09
52032;BME280;38044;45.148;39.604;2023-12-07T00:33:11;101283.16;;;1.91;92.90
52032;BME280;38044;45.148;39.604;2023-12-07T00:35:37;101276.66;;;1.87;92.76
52032;BME280;38044;45.148;39.604;2023-12-07T00:38:03;101280.94;;;1.88;92.64
52032;BME280;38044;45.148;39.604;2023-12-07T00:40:28;101284.19;;;1.90;92.89
52032;BME280;38044;45.148;39.604;2023-12-07T00:43:17;101278.38;;;2.00;93.26
52032;BME280;38044;45.148;39.604;2023-12-07T00:46:08;101291.66;;;2.00;92.98
52032;BME280;38044;45.148;39.604;2023-12-07T00:48:34;101280.72;;;1.90;92.99
52032;BME280;38044;45.148;39.604;2023-12-07T00:51:00;101287.28;;;1.87;92.63
52032;BME280;38044;45.148;39.604;2023-12-07T00:53:26;101294.59;;;1.92;92.67
52032;BME280;38044;45.148;39.604;2023-12-07T00:55:52;101266.75;;;1.76;92.73
52032;BME280;38044;45.148;39.604;2023-12-07T00:58:17;101282.41;;;1.84;92.73
52032;BME280;38044;45.148;39.604;2023-12-07T01:00:43;101294.63;;;1.85;92.85
52032;BME280;38044;45.148;39.604;2023-12-07T01:03:09;101291.78;;;1.80;92.85
52032;BME280;38044;45.148;39.604;2023-12-07T01:05:36;101274.09;;;1.74;93.10
52032;BME280;38044;45.148;39.604;2023-12-07T01:08:01;101293.75;;;1.91;92.82
52032;BME280;38044;45.148;39.604;2023-12-07T01:10:27;101292.94;;;1.91;92.58
52032;BME280;38044;45.148;39.604;2023-12-07T01:12:53;101283.00;;;1.86;92.61
52032;BME280;38044;45.148;39.604;2023-12-07T01:15:19;101275.88;;;1.80;92.35
52032;BME280;38044;45.148;39.604;2023-12-07T01:17:45;101267.94;;;1.80;92.45
52032;BME280;38044;45.148;39.604;2023-12-07T01:20:11;101263.66;;;1.79;92.24
52032;BME280;38044;45.148;39.604;2023-12-07T01:22:41;101291.94;;;1.92;92.14
52032;BME280;38044;45.148;39.604;2023-12-07T01:25:07;101290.97;;;1.86;92.42
52032;BME280;38044;45.148;39.604;2023-12-07T01:27:34;101301.94;;;1.90;92.11
52032;BME280;38044;45.148;39.604;2023-12-07T01:30:00;101288.50;;;1.85;92.22
52032;BME280;38044;45.148;39.604;2023-12-07T01:32:26;101286.06;;;1.83;91.99
52032;BME280;38044;45.148;39.604;2023-12-07T01:34:52;101279.94;;;1.83;92.14
52032;BME280;38044;45.148;39.604;2023-12-07T01:37:18;101269.03;;;1.72;91.84
52032;BME280;38044;45.148;39.604;2023-12-07T01:39:43;101280.00;;;1.76;91.80
52032;BME280;38044;45.148;39.604;2023-12-07T01:42:12;101279.56;;;1.79;91.87
52032;BME280;38044;45.148;39.604;2023-12-07T01:44:39;101303.19;;;1.87;91.72
52032;BME280;38044;45.148;39.604;2023-12-07T01:50:27;101278.34;;;1.82;91.69
52032;BME280;38044;45.148;39.604;2023-12-07T01:52:59;101293.63;;;1.86;91.52
52032;BME280;38044;45.148;39.604;2023-12-07T01:55:27;101306.44;;;1.89;91.66
52032;BME280;38044;45.148;39.604;2023-12-07T01:58:22;101309.63;;;1.98;91.99
52032;BME280;38044;45.148;39.604;2023-12-07T02:00:52;101291.78;;;1.80;91.36
52032;BME280;38044;45.148;39.604;2023-12-07T02:03:18;101306.00;;;1.92;91.62
52032;BME280;38044;45.148;39.604;2023-12-07T02:05:48;101287.69;;;1.84;91.56
52032;BME280;38044;45.148;39.604;2023-12-07T02:08:16;101305.19;;;1.92;91.19
52032;BME280;38044;45.148;39.604;2023-12-07T02:10:45;101313.16;;;1.92;91.00
52032;BME280;38044;45.148;39.604;2023-12-07T02:13:12;101312.91;;;1.93;90.98
52032;BME280;38044;45.148;39.604;2023-12-07T02:15:39;101319.25;;;1.92;90.85
52032;BME280;38044;45.148;39.604;2023-12-07T02:18:35;101304.78;;;1.88;91.01
52032;BME280;38044;45.148;39.604;2023-12-07T02:21:07;101321.91;;;1.92;90.79
52032;BME280;38044;45.148;39.604;2023-12-07T02:23:44;101329.81;;;1.99;90.80
52032;BME280;38044;45.148;39.604;2023-12-07T02:26:13;101318.66;;;1.90;90.85
52032;BME280;38044;45.148;39.604;2023-12-07T02:28:44;101313.84;;;1.80;90.90
52032;BME280;38044;45.148;39.604;2023-12-07T02:31:10;101322.78;;;1.86;90.68
52032;BME280;38044;45.148;39.604;2023-12-07T02:33:36;101336.72;;;2.00;90.28
52032;BME280;38044;45.148;39.604;2023-12-07T02:36:02;101326.41;;;1.92;90.57
52032;BME280;38044;45.148;39.604;2023-12-07T02:41:50;101336.59;;;1.95;89.95
52032;BME280;38044;45.148;39.604;2023-12-07T02:44:17;101327.59;;;1.96;90.01
52032;BME280;38044;45.148;39.604;2023-12-07T02:46:44;101312.56;;;1.83;90.30
52032;BME280;38044;45.148;39.604;2023-12-07T02:55:50;101311.75;;;1.89;89.94
52032;BME280;38044;45.148;39.604;2023-12-07T02:58:21;101312.44;;;2.03;89.58
52032;BME280;38044;45.148;39.604;2023-12-07T03:00:57;101293.31;;;1.94;89.50
52032;BME280;38044;45.148;39.604;2023-12-07T03:03:37;101305.41;;;1.90;89.59
52032;BME280;38044;45.148;39.604;2023-12-07T03:09:27;101311.31;;;1.92;89.53
52032;BME280;38044;45.148;39.604;2023-12-07T14:39:35;101421.59;;;3.25;82.08
52032;BME280;38044;45.148;39.604;2023-12-07T14:42:02;101424.88;;;3.27;82.16
52032;BME280;38044;45.148;39.604;2023-12-07T14:44:30;101428.41;;;3.21;82.14
52032;BME280;38044;45.148;39.604;2023-12-07T14:46:56;101426.31;;;3.23;82.33
52032;BME280;38044;45.148;39.604;2023-12-07T14:49:22;101446.56;;;3.24;82.01
52032;BME280;38044;45.148;39.604;2023-12-07T14:51:49;101448.63;;;3.22;82.37
52032;BME280;38044;45.148;39.604;2023-12-07T14:54:16;101425.50;;;3.04;82.34
52032;BME280;38044;45.148;39.604;2023-12-07T14:56:42;101459.81;;;3.06;82.61
52032;BME280;38044;45.148;39.604;2023-12-07T14:59:10;101440.66;;;3.04;82.56
52032;BME280;38044;45.148;39.604;2023-12-07T15:01:39;101457.03;;;3.01;82.75
52032;BME280;38044;45.148;39.604;2023-12-07T15:04:06;101455.38;;;3.00;82.94
52032;BME280;38044;45.148;39.604;2023-12-07T15:06:32;101445.03;;;2.91;82.79
52032;BME280;38044;45.148;39.604;2023-12-07T15:09:23;101440.69;;;2.97;83.08
52032;BME280;38044;45.148;39.604;2023-12-07T15:11:49;101449.16;;;2.87;82.98
52032;BME280;38044;45.148;39.604;2023-12-07T15:14:16;101449.59;;;2.84;82.94
52032;BME280;38044;45.148;39.604;2023-12-07T15:16:42;101426.66;;;2.65;83.34
52032;BME280;38044;45.148;39.604;2023-12-07T15:19:08;101438.50;;;2.69;83.36
52032;BME280;38044;45.148;39.604;2023-12-07T15:27:07;101443.41;;;2.65;83.47
52032;BME280;38044;45.148;39.604;2023-12-07T15:32:55;101440.59;;;2.60;83.55
52032;BME280;38044;45.148;39.604;2023-12-07T15:37:57;101458.19;;;2.55;83.87
52032;BME280;38044;45.148;39.604;2023-12-07T15:40:23;101453.75;;;2.48;84.14
52032;BME280;38044;45.148;39.604;2023-12-07T15:42:50;101462.47;;;2.56;83.99
52032;BME280;38044;45.148;39.604;2023-12-07T15:45:16;101463.56;;;2.48;84.06
52032;BME280;38044;45.148;39.604;2023-12-07T15:47:42;101459.09;;;2.42;84.24
52032;BME280;38044;45.148;39.604;2023-12-07T15:50:08;101442.00;;;2.38;84.15
52032;BME280;38044;45.148;39.604;2023-12-07T15:52:36;101448.28;;;2.43;84.40
52032;BME280;38044;45.148;39.604;2023-12-07T15:55:03;101460.78;;;2.36;84.60
52032;BME280;38044;45.148;39.604;2023-12-07T15:57:29;101463.81;;;2.40;84.23
52032;BME280;38044;45.148;39.604;2023-12-07T15:59:55;101471.38;;;2.36;84.40
52032;BME280;38044;45.148;39.604;2023-12-07T16:02:25;101473.41;;;2.41;84.61
52032;BME280;38044;45.148;39.604;2023-12-07T16:04:54;101467.13;;;2.35;84.64
52032;BME280;38044;45.148;39.604;2023-12-07T16:07:21;101448.00;;;2.20;84.58
52032;BME280;38044;45.148;39.604;2023-12-07T16:09:49;101465.28;;;2.36;84.64
52032;BME280;38044;45.148;39.604;2023-12-07T16:12:18;101473.22;;;2.36;84.14
52032;BME280;38044;45.148;39.604;2023-12-07T16:14:45;101468.97;;;2.35;84.32
52032;BME280;38044;45.148;39.604;2023-12-07T16:17:11;101451.06;;;2.23;84.21
52032;BME280;38044;45.148;39.604;2023-12-07T16:19:38;101467.75;;;2.31;84.42
52032;BME280;38044;45.148;39.604;2023-12-07T16:22:04;101465.31;;;2.29;84.08
52032;BME280;38044;45.148;39.604;2023-12-07T16:24:31;101465.47;;;2.34;83.94
52032;BME280;38044;45.148;39.604;2023-12-07T16:26:58;101457.94;;;2.31;84.08
52032;BME280;38044;45.148;39.604;2023-12-07T16:29:27;101461.41;;;2.32;84.28
52032;BME280;38044;45.148;39.604;2023-12-07T16:31:54;101461.63;;;2.30;84.11
52032;BME280;38044;45.148;39.604;2023-12-07T16:34:22;101458.38;;;2.28;84.22
52032;BME280;38044;45.148;39.604;2023-12-07T16:36:51;101463.69;;;2.28;83.82
52032;BME280;38044;45.148;39.604;2023-12-07T16:39:18;101460.59;;;2.31;83.83
52032;BME280;38044;45.148;39.604;2023-12-07T16:41:44;101457.13;;;2.31;83.86
52032;BME280;38044;45.148;39.604;2023-12-07T16:44:11;101465.72;;;2.26;83.82
52032;BME280;38044;45.148;39.604;2023-12-07T16:46:39;101448.25;;;2.12;84.03
52032;BME280;38044;45.148;39.604;2023-12-07T16:49:06;101468.81;;;2.23;83.99
52032;BME280;38044;45.148;39.604;2023-12-07T16:51:34;101467.38;;;2.27;83.91
52032;BME280;38044;45.148;39.604;2023-12-07T16:54:02;101478.41;;;2.24;83.68
52032;BME280;38044;45.148;39.604;2023-12-07T16:56:36;101456.00;;;2.13;84.05
52032;BME280;38044;45.148;39.604;2023-12-07T16:59:02;101471.06;;;2.19;84.09
52032;BME280;38044;45.148;39.604;2023-12-07T17:01:30;101461.50;;;2.12;83.75
52032;BME280;38044;45.148;39.604;2023-12-07T17:03:59;101471.06;;;2.19;83.70
52032;BME280;38044;45.148;39.604;2023-12-07T17:06:25;101471.88;;;2.20;83.66
52032;BME280;38044;45.148;39.604;2023-12-07T17:08:52;101458.63;;;2.20;83.59
52032;BME280;38044;45.148;39.604;2023-12-07T17:11:22;101456.41;;;2.17;83.82
52032;BME280;38044;45.148;39.604;2023-12-07T17:13:49;101456.38;;;2.23;83.70
52032;BME280;38044;45.148;39.604;2023-12-07T17:16:21;101437.25;;;2.15;83.74
52032;BME280;38044;45.148;39.604;2023-12-07T17:18:50;101445.72;;;2.30;83.35
52032;BME280;38044;45.148;39.604;2023-12-07T17:21:19;101444.72;;;2.24;82.86
52032;BME280;38044;45.148;39.604;2023-12-07T17:23:47;101458.78;;;2.25;83.09
52032;BME280;38044;45.148;39.604;2023-12-07T17:26:17;101462.50;;;2.24;83.03
52032;BME280;38044;45.148;39.604;2023-12-07T17:28:45;101425.41;;;2.11;82.79
52032;BME280;38044;45.148;39.604;2023-12-07T17:31:15;101445.59;;;2.18;82.70
52032;BME280;38044;45.148;39.604;2023-12-07T17:33:41;101442.13;;;2.11;82.96
52032;BME280;38044;45.148;39.604;2023-12-07T17:36:08;101448.25;;;2.12;82.74
52032;BME280;38044;45.148;39.604;2023-12-07T17:38:34;101451.56;;;2.07;83.09
52032;BME280;38044;45.148;39.604;2023-12-07T17:41:01;101450.75;;;2.07;83.05
52032;BME280;38044;45.148;39.604;2023-12-07T17:43:27;101442.19;;;2.05;82.83
52032;BME280;38044;45.148;39.604;2023-12-07T17:45:53;101445.59;;;2.12;82.42
52032;BME280;38044;45.148;39.604;2023-12-07T17:48:20;101456.91;;;2.00;82.77
52032;BME280;38044;45.148;39.604;2023-12-07T17:50:46;101444.28;;;1.96;82.81
52032;BME280;38044;45.148;39.604;2023-12-07T17:53:12;101439.16;;;1.94;82.78
52032;BME280;38044;45.148;39.604;2023-12-07T17:55:38;101425.75;;;1.89;82.70
52032;BME280;38044;45.148;39.604;2023-12-07T17:58:04;101454.66;;;1.97;82.70
52032;BME280;38044;45.148;39.604;2023-12-07T18:00:31;101417.81;;;1.83;82.71
52032;BME280;38044;45.148;39.604;2023-12-07T18:02:58;101436.13;;;1.91;82.54
52032;BME280;38044;45.148;39.604;2023-12-07T18:05:24;101448.16;;;1.93;82.54
52032;BME280;38044;45.148;39.604;2023-12-07T18:07:50;101438.59;;;1.92;82.31
52032;BME280;38044;45.148;39.604;2023-12-07T18:10:16;101416.81;;;1.77;82.54
52032;BME280;38044;45.148;39.604;2023-12-07T18:12:46;101433.53;;;1.84;82.64
52032;BME280;38044;45.148;39.604;2023-12-07T18:15:12;101441.47;;;1.84;82.77
52032;BME280;38044;45.148;39.604;2023-12-07T18:17:40;101435.56;;;1.82;82.62
52032;BME280;38044;45.148;39.604;2023-12-07T18:20:07;101434.13;;;1.86;82.63
52032;BME280;38044;45.148;39.604;2023-12-07T18:22:33;101450.03;;;1.86;82.59
52032;BME280;38044;45.148;39.604;2023-12-07T18:25:01;101448.00;;;1.82;82.93
52032;BME280;38044;45.148;39.604;2023-12-07T18:27:37;101443.09;;;1.85;83.18
52032;BME280;38044;45.148;39.604;2023-12-07T18:30:06;101451.63;;;1.94;82.49
52032;BME280;38044;45.148;39.604;2023-12-07T18:32:35;101461.03;;;1.83;82.82
52032;BME280;38044;45.148;39.604;2023-12-07T18:35:20;101456.13;;;1.93;82.66
52032;BME280;38044;45.148;39.604;2023-12-07T18:37:51;101445.56;;;1.80;82.60
52032;BME280;38044;45.148;39.604;2023-12-07T18:40:26;101423.19;;;1.69;82.83
52032;BME280;38044;45.148;39.604;2023-12-07T18:43:18;101450.84;;;1.80;83.04
52032;BME280;38044;45.148;39.604;2023-12-07T18:45:45;101455.59;;;1.71;83.19
52032;BME280;38044;45.148;39.604;2023-12-07T18:48:12;101456.63;;;1.70;82.92
52032;BME280;38044;45.148;39.604;2023-12-07T18:50:38;101453.00;;;1.58;83.17
52032;BME280;38044;45.148;39.604;2023-12-07T18:53:07;101468.41;;;1.74;82.92
52032;BME280;38044;45.148;39.604;2023-12-07T18:55:34;101458.66;;;1.68;83.32
52032;BME280;38044;45.148;39.604;2023-12-07T18:58:04;101431.56;;;1.60;83.20
52032;BME280;38044;45.148;39.604;2023-12-07T19:00:35;101442.75;;;1.75;82.99
52032;BME280;38044;45.148;39.604;2023-12-07T19:03:02;101436.22;;;1.71;82.98
52032;BME280;38044;45.148;39.604;2023-12-07T19:05:28;101444.78;;;1.73;82.78
52032;BME280;38044;45.148;39.604;2023-12-07T19:07:55;101445.41;;;1.75;83.06
52032;BME280;38044;45.148;39.604;2023-12-07T19:10:22;101438.44;;;1.74;82.87
52032;BME280;38044;45.148;39.604;2023-12-07T19:12:48;101429.88;;;1.78;82.57
52032;BME280;38044;45.148;39.604;2023-12-07T19:15:14;101437.44;;;1.75;82.87
52032;BME280;38044;45.148;39.604;2023-12-07T19:17:41;101410.94;;;1.68;82.40
52032;BME280;38044;45.148;39.604;2023-12-07T19:20:08;101406.06;;;1.72;82.35
52032;BME280;38044;45.148;39.604;2023-12-07T19:22:34;101430.91;;;1.77;82.23
52032;BME280;38044;45.148;39.604;2023-12-07T19:25:01;101411.75;;;1.69;82.34
52032;BME280;38044;45.148;39.604;2023-12-07T19:27:27;101437.19;;;1.83;82.41
52032;BME280;38044;45.148;39.604;2023-12-07T19:29:53;101437.16;;;1.90;82.10
52032;BME280;38044;45.148;39.604;2023-12-07T19:32:20;101419.47;;;1.84;82.10
52032;BME280;38044;45.148;39.604;2023-12-07T19:34:46;101419.84;;;1.87;81.99
52032;BME280;38044;45.148;39.604;2023-12-07T19:37:13;101413.50;;;1.88;81.98
52032;BME280;38044;45.148;39.604;2023-12-07T19:39:42;101423.47;;;1.93;81.94
52032;BME280;38044;45.148;39.604;2023-12-07T19:42:08;101419.00;;;1.93;81.47
52032;BME280;38044;45.148;39.604;2023-12-07T19:44:34;101411.06;;;1.87;81.47
52032;BME280;38044;45.148;39.604;2023-12-07T19:47:00;101426.75;;;1.95;81.82
52032;BME280;38044;45.148;39.604;2023-12-07T19:49:26;101410.09;;;1.81;81.83
52032;BME280;38044;45.148;39.604;2023-12-07T19:51:52;101419.22;;;1.85;81.48
52032;BME280;38044;45.148;39.604;2023-12-07T19:54:18;101442.44;;;1.96;81.35
52032;BME280;38044;45.148;39.604;2023-12-07T19:56:50;101444.84;;;2.05;81.54
52032;BME280;38044;45.148;39.604;2023-12-07T19:59:16;101443.59;;;2.07;81.18
52032;BME280;38044;45.148;39.604;2023-12-07T20:01:42;101418.38;;;1.91;81.31
52032;BME280;38044;45.148;39.604;2023-12-07T20:04:08;101428.56;;;1.94;81.38
52032;BME280;38044;45.148;39.604;2023-12-07T20:06:34;101442.63;;;2.01;81.09
52032;BME280;38044;45.148;39.604;2023-12-07T20:09:00;101445.44;;;2.07;81.30
52032;BME280;38044;45.148;39.604;2023-12-07T20:11:26;101429.78;;;1.98;80.66
52032;BME280;38044;45.148;39.604;2023-12-07T20:13:52;101434.44;;;2.03;81.10
52032;BME280;38044;45.148;39.604;2023-12-07T20:16:19;101439.72;;;2.03;80.99
52032;BME280;38044;45.148;39.604;2023-12-07T20:18:45;101429.09;;;2.10;80.84
52032;BME280;38044;45.148;39.604;2023-12-07T20:21:12;101444.63;;;2.06;81.20
52032;BME280;38044;45.148;39.604;2023-12-07T20:23:38;101449.09;;;2.06;80.81
52032;BME280;38044;45.148;39.604;2023-12-07T20:26:08;101452.38;;;2.08;80.92
52032;BME280;38044;45.148;39.604;2023-12-07T20:28:41;101447.06;;;2.08;80.73
52032;BME280;38044;45.148;39.604;2023-12-07T20:31:08;101427.97;;;1.92;81.15
52032;BME280;38044;45.148;39.604;2023-12-07T20:33:34;101443.81;;;2.06;80.87
52032;BME280;38044;45.148;39.604;2023-12-07T20:36:00;101441.56;;;2.02;80.53
52032;BME280;38044;45.148;39.604;2023-12-07T20:38:26;101442.56;;;2.08;80.37
52032;BME280;38044;45.148;39.604;2023-12-07T20:40:52;101437.94;;;1.97;80.75
52032;BME280;38044;45.148;39.604;2023-12-07T20:43:18;101455.25;;;2.06;80.51
52032;BME280;38044;45.148;39.604;2023-12-07T20:45:44;101463.59;;;2.10;80.04
52032;BME280;38044;45.148;39.604;2023-12-07T20:48:10;101450.31;;;2.10;80.30
52032;BME280;38044;45.148;39.604;2023-12-07T20:50:36;101460.94;;;2.10;80.27
52032;BME280;38044;45.148;39.604;2023-12-07T20:53:02;101425.91;;;1.94;80.35
52032;BME280;38044;45.148;39.604;2023-12-07T20:55:29;101432.44;;;1.98;80.20
52032;BME280;38044;45.148;39.604;2023-12-07T20:57:56;101454.59;;;2.11;80.27
52032;BME280;38044;45.148;39.604;2023-12-07T21:00:22;101465.81;;;2.13;80.47
52032;BME280;38044;45.148;39.604;2023-12-07T21:02:48;101448.88;;;2.14;80.27
52032;BME280;38044;45.148;39.604;2023-12-07T21:05:15;101448.88;;;2.14;80.18
52032;BME280;38044;45.148;39.604;2023-12-07T21:07:41;101435.69;;;2.00;80.27
52032;BME280;38044;45.148;39.604;2023-12-07T21:10:07;101452.00;;;2.04;80.63
52032;BME280;38044;45.148;39.604;2023-12-07T21:12:34;101446.69;;;1.97;80.91
52032;BME280;38044;45.148;39.604;2023-12-07T21:15:00;101449.53;;;2.02;80.48
52032;BME280;38044;45.148;39.604;2023-12-07T21:17:33;101425.94;;;1.88;80.63
52032;BME280;38044;45.148;39.604;2023-12-07T21:19:59;101426.50;;;1.96;81.04
52032;BME280;38044;45.148;39.604;2023-12-07T21:22:25;101427.50;;;2.02;80.42
52032;BME280;38044;45.148;39.604;2023-12-07T21:24:52;101443.94;;;2.17;80.03
52032;BME280;38044;45.148;39.604;2023-12-07T21:27:18;101425.84;;;2.08;80.40
52032;BME280;38044;45.148;39.604;2023-12-07T21:29:47;101444.78;;;2.18;80.38
52032;BME280;38044;45.148;39.604;2023-12-07T21:32:13;101424.06;;;2.01;80.27
52032;BME280;38044;45.148;39.604;2023-12-07T21:34:39;101434.16;;;2.18;80.22
52032;BME280;38044;45.148;39.604;2023-12-07T21:37:08;101425.41;;;2.11;79.98
52032;BME280;38044;45.148;39.604;2023-12-07T21:39:36;101449.47;;;2.16;80.01
52032;BME280;38044;45.148;39.604;2023-12-07T21:42:03;101425.59;;;2.16;79.78
52032;BME280;38044;45.148;39.604;2023-12-07T21:44:29;101400.78;;;2.03;79.86
52032;BME280;38044;45.148;39.604;2023-12-07T21:46:55;101393.25;;;2.00;79.55
52032;BME280;38044;45.148;39.604;2023-12-07T21:49:21;101417.69;;;2.09;80.11
52032;BME280;38044;45.148;39.604;2023-12-07T21:51:47;101414.19;;;2.09;80.24
52032;BME280;38044;45.148;39.604;2023-12-07T21:54:13;101406.22;;;2.15;79.95
52032;BME280;38044;45.148;39.604;2023-12-07T21:56:39;101391.44;;;1.94;79.98
52032;BME280;38044;45.148;39.604;2023-12-07T21:59:05;101398.50;;;2.07;80.73
52032;BME280;38044;45.148;39.604;2023-12-07T22:01:31;101389.91;;;2.12;80.11
52032;BME280;38044;45.148;39.604;2023-12-07T22:03:57;101390.31;;;2.09;80.19
52032;BME280;38044;45.148;39.604;2023-12-07T22:06:26;101387.03;;;2.13;80.13
52032;BME280;38044;45.148;39.604;2023-12-07T22:08:56;101378.53;;;2.05;80.09
52032;BME280;38044;45.148;39.604;2023-12-07T22:11:22;101416.03;;;2.15;80.17
52032;BME280;38044;45.148;39.604;2023-12-07T22:13:49;101417.88;;;2.08;80.00
52032;BME280;38044;45.148;39.604;2023-12-07T22:16:15;101419.34;;;2.03;80.58
52032;BME280;38044;45.148;39.604;2023-12-07T22:18:41;101437.00;;;2.16;80.18
52032;BME280;38044;45.148;39.604;2023-12-07T22:21:07;101423.75;;;2.16;80.05
52032;BME280;38044;45.148;39.604;2023-12-07T22:23:39;101411.91;;;2.19;80.56
52032;BME280;38044;45.148;39.604;2023-12-07T22:26:07;101393.03;;;2.02;80.72
52032;BME280;38044;45.148;39.604;2023-12-07T22:28:33;101432.75;;;2.15;80.90
52032;BME280;38044;45.148;39.604;2023-12-07T22:30:59;101438.81;;;2.22;80.19
52032;BME280;38044;45.148;39.604;2023-12-07T22:33:25;101431.22;;;2.26;80.01
52032;BME280;38044;45.148;39.604;2023-12-07T22:35:51;101415.63;;;2.11;80.22
52032;BME280;38044;45.148;39.604;2023-12-07T22:38:17;101436.38;;;2.21;80.39
52032;BME280;38044;45.148;39.604;2023-12-07T22:40:44;101432.94;;;2.20;80.70
52032;BME280;38044;45.148;39.604;2023-12-07T22:43:10;101414.38;;;2.14;80.56
52032;BME280;38044;45.148;39.604;2023-12-07T22:45:36;101426.41;;;2.16;81.40
52032;BME280;38044;45.148;39.604;2023-12-07T22:48:02;101442.56;;;2.15;81.54
52032;BME280;38044;45.148;39.604;2023-12-07T22:50:28;101425.59;;;2.16;82.34
52032;BME280;38044;45.148;39.604;2023-12-07T22:52:54;101414.47;;;2.00;82.25
52032;BME280;38044;45.148;39.604;2023-12-07T22:55:20;101420.59;;;2.01;81.88
52032;BME280;38044;45.148;39.604;2023-12-07T22:57:46;101429.88;;;2.17;82.02
52032;BME280;38044;45.148;39.604;2023-12-07T23:00:13;101441.34;;;2.11;82.36
52032;BME280;38044;45.148;39.604;2023-12-07T23:02:47;101446.63;;;2.11;82.42
52032;BME280;38044;45.148;39.604;2023-12-07T23:05:14;101433.56;;;2.16;82.40
52032;BME280;38044;45.148;39.604;2023-12-07T23:07:41;101423.38;;;2.13;82.28
52032;BME280;38044;45.148;39.604;2023-12-07T23:10:08;101425.84;;;2.08;81.95
52032;BME280;38044;45.148;39.604;2023-12-07T23:12:43;101442.88;;;2.25;82.91
52032;BME280;38044;45.148;39.604;2023-12-07T23:15:09;101428.25;;;2.16;82.89
52032;BME280;38044;45.148;39.604;2023-12-07T23:17:36;101420.16;;;2.04;82.72
52032;BME280;38044;45.148;39.604;2023-12-07T23:20:02;101429.50;;;2.13;82.84
52032;BME280;38044;45.148;39.604;2023-12-07T23:22:28;101442.56;;;2.15;83.17
52032;BME280;38044;45.148;39.604;2023-12-07T23:24:54;101435.22;;;2.10;83.24
52032;BME280;38044;45.148;39.604;2023-12-07T23:27:21;101433.63;;;2.02;84.36
52032;BME280;38044;45.148;39.604;2023-12-07T23:29:47;101403.13;;;1.87;85.59
52032;BME280;38044;45.148;39.604;2023-12-07T23:32:13;101410.28;;;1.86;86.45
52032;BME280;38044;45.148;39.604;2023-12-07T23:34:40;101392.63;;;1.67;87.21
52032;BME280;38044;45.148;39.604;2023-12-07T23:37:06;101416.25;;;1.75;88.11
52032;BME280;38044;45.148;39.604;2023-12-07T23:39:32;101415.44;;;1.68;88.54
52032;BME280;38044;45.148;39.604;2023-12-07T23:41:59;101409.09;;;1.69;89.49
52032;BME280;38044;45.148;39.604;2023-12-07T23:44:26;101441.53;;;1.71;89.80
52032;BME280;38044;45.148;39.604;2023-12-07T23:46:53;101436.25;;;1.64;90.26
52032;BME280;38044;45.148;39.604;2023-12-07T23:49:19;101421.78;;;1.67;90.65
52032;BME280;38044;45.148;39.604;2023-12-07T23:51:46;101412.59;;;1.63;90.62
52032;BME280;38044;45.148;39.604;2023-12-07T23:54:12;101408.94;;;1.64;90.82
52032;BME280;38044;45.148;39.604;2023-12-07T23:56:39;101406.72;;;1.61;90.76
52032;BME280;38044;45.148;39.604;2023-12-07T23:59:09;101385.75;;;1.46;91.01
